sensor_id;sensor_type;location;lat;lon;timestamp;temperature;humidity
61253;DHT22;47127;47.516;8.596;2023-02-28T00:00:18;0.60;99.90
61253;DHT22;47127;47.516;8.596;2023-02-28T00:02:46;0.70;99.90
61253;DHT22;47127;47.516;8.596;2023-02-28T00:05:13;0.70;99.90
61253;DHT22;47127;47.516;8.596;2023-02-28T00:07:39;0.70;99.90
61253;DHT22;47127;47.516;8.596;2023-02-28T00:10:06;0.70;99.90
61253;DHT22;47127;47.516;8.596;2023-02-28T00:12:33;0.50;99.90
61253;DHT22;47127;47.516;8.596;2023-02-28T00:14:59;0.60;99.90
61253;DHT22;47127;47.516;8.596;2023-02-28T00:17:25;0.30;99.90
61253;DHT22;47127;47.516;8.596;2023-02-28T00:19:51;0.60;99.90
61253;DHT22;47127;47.516;8.596;2023-02-28T00:22:19;0.60;99.90
61253;DHT22;47127;47.516;8.596;2023-02-28T00:24:45;0.50;99.90
61253;DHT22;47127;47.516;8.596;2023-02-28T00:27:11;0.40;99.90
61253;DHT22;47127;47.516;8.596;2023-02-28T00:29:37;0.60;99.90
61253;DHT22;47127;47.516;8.596;2023-02-28T00:32:04;0.50;99.90
61253;DHT22;47127;47.516;8.596;2023-02-28T00:34:29;0.60;99.90
61253;DHT22;47127;47.516;8.596;2023-02-28T00:36:55;0.70;99.90
61253;DHT22;47127;47.516;8.596;2023-02-28T00:39:21;0.50;99.90
61253;DHT22;47127;47.516;8.596;2023-02-28T00:41:48;0.50;99.90
61253;DHT22;47127;47.516;8.596;2023-02-28T00:44:13;0.60;99.90
61253;DHT22;47127;47.516;8.596;2023-02-28T00:46:39;0.80;99.90
61253;DHT22;47127;47.516;8.596;2023-02-28T00:49:04;0.70;99.90
61253;DHT22;47127;47.516;8.596;2023-02-28T00:51:30;0.60;99.90
61253;DHT22;47127;47.516;8.596;2023-02-28T00:53:55;0.70;99.90
61253;DHT22;47127;47.516;8.596;2023-02-28T00:56:21;0.70;99.90
61253;DHT22;47127;47.516;8.596;2023-02-28T00:58:46;0.70;99.90
61253;DHT22;47127;47.516;8.596;2023-02-28T01:01:12;0.60;99.90
61253;DHT22;47127;47.516;8.596;2023-02-28T01:03:38;0.80;99.90
61253;DHT22;47127;47.516;8.596;2023-02-28T01:06:04;0.80;99.90
61253;DHT22;47127;47.516;8.596;2023-02-28T01:08:29;0.80;99.90
61253;DHT22;47127;47.516;8.596;2023-02-28T01:10:55;0.90;99.90
61253;DHT22;47127;47.516;8.596;2023-02-28T01:13:21;0.80;99.90
61253;DHT22;47127;47.516;8.596;2023-02-28T01:15:54;0.90;99.90
61253;DHT22;47127;47.516;8.596;2023-02-28T01:18:21;0.80;99.90
61253;DHT22;47127;47.516;8.596;2023-02-28T01:20:47;0.70;99.90
61253;DHT22;47127;47.516;8.596;2023-02-28T01:23:12;0.90;99.90
61253;DHT22;47127;47.516;8.596;2023-02-28T01:25:38;0.80;99.90
61253;DHT22;47127;47.516;8.596;2023-02-28T01:28:04;0.80;99.90
61253;DHT22;47127;47.516;8.596;2023-02-28T01:30:31;0.70;99.90
61253;DHT22;47127;47.516;8.596;2023-02-28T01:32:56;0.80;99.90
61253;DHT22;47127;47.516;8.596;2023-02-28T01:35:22;0.80;99.90
61253;DHT22;47127;47.516;8.596;2023-02-28T01:37:47;0.90;99.90
61253;DHT22;47127;47.516;8.596;2023-02-28T01:40:13;0.90;99.90
61253;DHT22;47127;47.516;8.596;2023-02-28T01:42:39;0.90;99.90
61253;DHT22;47127;47.516;8.596;2023-02-28T01:45:20;0.80;99.90
61253;DHT22;47127;47.516;8.596;2023-02-28T01:47:48;0.60;99.90
61253;DHT22;47127;47.516;8.596;2023-02-28T01:50:19;0.80;99.90
61253;DHT22;47127;47.516;8.596;2023-02-28T01:52:47;0.80;99.90
61253;DHT22;47127;47.516;8.596;2023-02-28T01:55:15;0.80;99.90
61253;DHT22;47127;47.516;8.596;2023-02-28T01:57:51;0.80;99.90
61253;DHT22;47127;47.516;8.596;2023-02-28T02:00:21;0.70;99.90
61253;DHT22;47127;47.516;8.596;2023-02-28T02:02:50;0.60;99.90
61253;DHT22;47127;47.516;8.596;2023-02-28T02:05:23;0.80;99.90
61253;DHT22;47127;47.516;8.596;2023-02-28T02:07:52;0.90;99.90
61253;DHT22;47127;47.516;8.596;2023-02-28T02:10:23;0.70;99.90
61253;DHT22;47127;47.516;8.596;2023-02-28T02:18:48;1.00;99.90
61253;DHT22;47127;47.516;8.596;2023-02-28T02:38:08;1.00;99.90
61253;DHT22;47127;47.516;8.596;2023-02-28T02:40:43;1.00;99.90
61253;DHT22;47127;47.516;8.596;2023-02-28T02:43:28;1.00;99.90
61253;DHT22;47127;47.516;8.596;2023-02-28T02:46:04;1.00;99.90
61253;DHT22;47127;47.516;8.596;2023-02-28T02:48:33;1.10;99.90
61253;DHT22;47127;47.516;8.596;2023-02-28T02:51:03;0.80;99.90
61253;DHT22;47127;47.516;8.596;2023-02-28T02:53:37;1.00;99.90
61253;DHT22;47127;47.516;8.596;2023-02-28T02:56:07;1.10;99.90
61253;DHT22;47127;47.516;8.596;2023-02-28T02:58:36;1.10;99.90
61253;DHT22;47127;47.516;8.596;2023-02-28T03:01:10;1.10;99.90
61253;DHT22;47127;47.516;8.596;2023-02-28T03:03:37;1.20;99.90
61253;DHT22;47127;47.516;8.596;2023-02-28T03:06:03;1.10;99.90
61253;DHT22;47127;47.516;8.596;2023-02-28T03:08:35;1.10;99.90
61253;DHT22;47127;47.516;8.596;2023-02-28T03:11:09;1.10;99.90
61253;DHT22;47127;47.516;8.596;2023-02-28T03:16:33;1.00;99.90
61253;DHT22;47127;47.516;8.596;2023-02-28T03:27:31;1.10;99.90
61253;DHT22;47127;47.516;8.596;2023-02-28T03:30:09;1.00;99.90
61253;DHT22;47127;47.516;8.596;2023-02-28T03:35:24;1.10;99.90
61253;DHT22;47127;47.516;8.596;2023-02-28T03:37:54;1.00;99.90
61253;DHT22;47127;47.516;8.596;2023-02-28T03:40:25;1.00;99.90
61253;DHT22;47127;47.516;8.596;2023-02-28T03:42:59;1.00;99.90
61253;DHT22;47127;47.516;8.596;2023-02-28T03:45:30;0.90;99.90
61253;DHT22;47127;47.516;8.596;2023-02-28T03:48:02;0.90;99.90
61253;DHT22;47127;47.516;8.596;2023-02-28T03:50:39;0.80;99.90
61253;DHT22;47127;47.516;8.596;2023-02-28T03:53:21;0.90;99.90
61253;DHT22;47127;47.516;8.596;2023-02-28T03:55:57;1.00;99.90
61253;DHT22;47127;47.516;8.596;2023-02-28T03:58:47;1.00;99.90
61253;DHT22;47127;47.516;8.596;2023-02-28T04:01:20;0.90;99.90
61253;DHT22;47127;47.516;8.596;2023-02-28T04:03:47;0.90;99.90
61253;DHT22;47127;47.516;8.596;2023-02-28T04:06:19;1.00;99.90
61253;DHT22;47127;47.516;8.596;2023-02-28T04:08:45;1.00;99.90
61253;DHT22;47127;47.516;8.596;2023-02-28T04:11:34;1.00;99.90
61253;DHT22;47127;47.516;8.596;2023-02-28T04:14:01;0.90;99.90
61253;DHT22;47127;47.516;8.596;2023-02-28T04:16:28;1.00;99.90
61253;DHT22;47127;47.516;8.596;2023-02-28T04:18:53;1.00;99.90
61253;DHT22;47127;47.516;8.596;2023-02-28T04:21:19;0.90;99.90
61253;DHT22;47127;47.516;8.596;2023-02-28T04:23:47;0.90;99.90
61253;DHT22;47127;47.516;8.596;2023-02-28T04:26:13;0.90;99.90
61253;DHT22;47127;47.516;8.596;2023-02-28T04:28:38;0.80;99.90
61253;DHT22;47127;47.516;8.596;2023-02-28T04:31:04;1.00;99.90
61253;DHT22;47127;47.516;8.596;2023-02-28T04:33:31;0.90;99.90
61253;DHT22;47127;47.516;8.596;2023-02-28T04:36:05;0.90;99.90
61253;DHT22;47127;47.516;8.596;2023-02-28T04:38:34;0.80;99.90
61253;DHT22;47127;47.516;8.596;2023-02-28T04:41:00;1.00;99.90
61253;DHT22;47127;47.516;8.596;2023-02-28T04:43:27;0.90;99.90
61253;DHT22;47127;47.516;8.596;2023-02-28T04:45:53;1.10;99.90
61253;DHT22;47127;47.516;8.596;2023-02-28T04:48:25;0.70;99.90
61253;DHT22;47127;47.516;8.596;2023-02-28T04:50:51;0.70;99.90
61253;DHT22;47127;47.516;8.596;2023-02-28T04:53:18;0.70;99.90
61253;DHT22;47127;47.516;8.596;2023-02-28T04:55:44;0.80;99.90
61253;DHT22;47127;47.516;8.596;2023-02-28T04:58:09;0.80;99.90
61253;DHT22;47127;47.516;8.596;2023-02-28T05:00:35;0.90;99.90
61253;DHT22;47127;47.516;8.596;2023-02-28T05:03:01;0.70;99.90
61253;DHT22;47127;47.516;8.596;2023-02-28T05:05:26;0.70;99.90
61253;DHT22;47127;47.516;8.596;2023-02-28T05:07:52;0.60;99.90
61253;DHT22;47127;47.516;8.596;2023-02-28T05:10:19;0.50;99.90
61253;DHT22;47127;47.516;8.596;2023-02-28T05:12:44;0.50;99.90
61253;DHT22;47127;47.516;8.596;2023-02-28T05:15:13;0.50;99.90
61253;DHT22;47127;47.516;8.596;2023-02-28T05:17:39;0.50;99.90
61253;DHT22;47127;47.516;8.596;2023-02-28T05:20:05;0.60;99.90
61253;DHT22;47127;47.516;8.596;2023-02-28T05:22:31;0.60;99.90
61253;DHT22;47127;47.516;8.596;2023-02-28T05:24:57;0.60;99.90
61253;DHT22;47127;47.516;8.596;2023-02-28T05:27:22;0.60;99.90
61253;DHT22;47127;47.516;8.596;2023-02-28T05:29:48;0.60;99.90
61253;DHT22;47127;47.516;8.596;2023-02-28T05:32:14;0.70;99.90
61253;DHT22;47127;47.516;8.596;2023-02-28T05:34:39;0.70;99.90
61253;DHT22;47127;47.516;8.596;2023-02-28T05:37:06;0.70;99.90
61253;DHT22;47127;47.516;8.596;2023-02-28T05:39:32;0.70;99.90
61253;DHT22;47127;47.516;8.596;2023-02-28T05:41:58;0.60;99.90
61253;DHT22;47127;47.516;8.596;2023-02-28T05:44:24;0.60;99.90
61253;DHT22;47127;47.516;8.596;2023-02-28T05:46:49;0.60;99.90
61253;DHT22;47127;47.516;8.596;2023-02-28T05:49:15;0.60;99.90
61253;DHT22;47127;47.516;8.596;2023-02-28T05:51:40;0.60;99.90
61253;DHT22;47127;47.516;8.596;2023-02-28T05:54:07;0.70;99.90
61253;DHT22;47127;47.516;8.596;2023-02-28T05:56:32;0.70;99.90
61253;DHT22;47127;47.516;8.596;2023-02-28T05:59:00;0.70;99.90
61253;DHT22;47127;47.516;8.596;2023-02-28T06:03:59;0.90;99.90
61253;DHT22;47127;47.516;8.596;2023-02-28T06:06:25;0.80;99.90
61253;DHT22;47127;47.516;8.596;2023-02-28T06:08:52;0.60;99.90
61253;DHT22;47127;47.516;8.596;2023-02-28T06:11:18;0.60;99.90
61253;DHT22;47127;47.516;8.596;2023-02-28T06:13:45;0.70;99.90
61253;DHT22;47127;47.516;8.596;2023-02-28T06:16:12;0.80;99.90
61253;DHT22;47127;47.516;8.596;2023-02-28T06:18:38;0.60;99.90
61253;DHT22;47127;47.516;8.596;2023-02-28T06:21:04;0.40;99.90
61253;DHT22;47127;47.516;8.596;2023-02-28T06:23:30;0.40;99.90
61253;DHT22;47127;47.516;8.596;2023-02-28T06:25:55;0.40;99.90
61253;DHT22;47127;47.516;8.596;2023-02-28T06:28:25;0.60;99.90
61253;DHT22;47127;47.516;8.596;2023-02-28T06:30:51;0.80;99.90
61253;DHT22;47127;47.516;8.596;2023-02-28T06:33:16;0.70;99.90
61253;DHT22;47127;47.516;8.596;2023-02-28T06:35:47;0.70;99.90
61253;DHT22;47127;47.516;8.596;2023-02-28T06:38:13;0.70;99.90
61253;DHT22;47127;47.516;8.596;2023-02-28T06:40:38;0.70;99.90
61253;DHT22;47127;47.516;8.596;2023-02-28T06:43:04;0.70;99.90
61253;DHT22;47127;47.516;8.596;2023-02-28T06:45:30;0.60;99.90
61253;DHT22;47127;47.516;8.596;2023-02-28T06:47:55;0.70;99.90
61253;DHT22;47127;47.516;8.596;2023-02-28T06:50:21;0.80;99.90
61253;DHT22;47127;47.516;8.596;2023-02-28T06:52:47;0.80;99.90
61253;DHT22;47127;47.516;8.596;2023-02-28T06:55:12;0.60;99.90
61253;DHT22;47127;47.516;8.596;2023-02-28T06:57:38;0.70;99.90
61253;DHT22;47127;47.516;8.596;2023-02-28T07:00:07;0.70;99.90
61253;DHT22;47127;47.516;8.596;2023-02-28T07:02:34;0.60;99.90
61253;DHT22;47127;47.516;8.596;2023-02-28T07:05:00;0.70;99.90
61253;DHT22;47127;47.516;8.596;2023-02-28T07:07:25;0.70;99.90
61253;DHT22;47127;47.516;8.596;2023-02-28T07:09:51;0.60;99.90
61253;DHT22;47127;47.516;8.596;2023-02-28T07:12:17;0.90;99.90
61253;DHT22;47127;47.516;8.596;2023-02-28T07:14:42;0.90;99.90
61253;DHT22;47127;47.516;8.596;2023-02-28T07:17:10;0.90;99.90
61253;DHT22;47127;47.516;8.596;2023-02-28T07:19:38;0.80;99.90
61253;DHT22;47127;47.516;8.596;2023-02-28T07:22:03;0.90;99.90
61253;DHT22;47127;47.516;8.596;2023-02-28T07:24:29;1.00;99.90
61253;DHT22;47127;47.516;8.596;2023-02-28T07:26:55;0.90;99.90
61253;DHT22;47127;47.516;8.596;2023-02-28T07:29:21;1.00;99.90
61253;DHT22;47127;47.516;8.596;2023-02-28T07:31:47;1.10;99.90
61253;DHT22;47127;47.516;8.596;2023-02-28T07:34:13;1.30;99.90
61253;DHT22;47127;47.516;8.596;2023-02-28T07:36:39;1.20;99.90
61253;DHT22;47127;47.516;8.596;2023-02-28T07:39:04;1.00;99.90
61253;DHT22;47127;47.516;8.596;2023-02-28T07:41:30;1.10;99.90
61253;DHT22;47127;47.516;8.596;2023-02-28T07:43:59;0.90;99.90
61253;DHT22;47127;47.516;8.596;2023-02-28T07:46:25;0.90;99.90
61253;DHT22;47127;47.516;8.596;2023-02-28T07:48:52;1.00;99.90
61253;DHT22;47127;47.516;8.596;2023-02-28T07:51:18;1.20;99.90
61253;DHT22;47127;47.516;8.596;2023-02-28T07:53:44;1.30;99.90
61253;DHT22;47127;47.516;8.596;2023-02-28T07:56:11;1.40;99.90
61253;DHT22;47127;47.516;8.596;2023-02-28T07:58:37;1.40;99.90
61253;DHT22;47127;47.516;8.596;2023-02-28T08:01:08;1.40;99.90
61253;DHT22;47127;47.516;8.596;2023-02-28T08:03:35;1.20;99.90
61253;DHT22;47127;47.516;8.596;2023-02-28T08:06:02;1.30;99.90
61253;DHT22;47127;47.516;8.596;2023-02-28T08:08:29;1.20;99.90
61253;DHT22;47127;47.516;8.596;2023-02-28T08:11:01;1.10;99.90
61253;DHT22;47127;47.516;8.596;2023-02-28T08:13:28;1.30;99.90
61253;DHT22;47127;47.516;8.596;2023-02-28T08:15:54;1.30;99.90
61253;DHT22;47127;47.516;8.596;2023-02-28T08:18:20;1.30;99.90
61253;DHT22;47127;47.516;8.596;2023-02-28T08:20:46;1.50;99.90
61253;DHT22;47127;47.516;8.596;2023-02-28T08:23:12;1.30;99.90
61253;DHT22;47127;47.516;8.596;2023-02-28T08:25:37;1.40;99.90
61253;DHT22;47127;47.516;8.596;2023-02-28T08:28:03;1.30;99.90
61253;DHT22;47127;47.516;8.596;2023-02-28T08:30:29;1.50;99.90
61253;DHT22;47127;47.516;8.596;2023-02-28T08:32:54;1.50;99.90
61253;DHT22;47127;47.516;8.596;2023-02-28T08:35:20;1.50;99.90
61253;DHT22;47127;47.516;8.596;2023-02-28T08:37:48;1.60;99.90
61253;DHT22;47127;47.516;8.596;2023-02-28T08:40:14;1.50;99.90
61253;DHT22;47127;47.516;8.596;2023-02-28T08:42:47;1.50;99.90
61253;DHT22;47127;47.516;8.596;2023-02-28T08:45:13;1.00;99.90
61253;DHT22;47127;47.516;8.596;2023-02-28T08:47:39;1.20;99.90
61253;DHT22;47127;47.516;8.596;2023-02-28T08:50:05;1.30;99.90
61253;DHT22;47127;47.516;8.596;2023-02-28T08:52:31;1.40;99.90
61253;DHT22;47127;47.516;8.596;2023-02-28T08:54:57;1.40;99.90
61253;DHT22;47127;47.516;8.596;2023-02-28T08:57:24;1.60;99.90
61253;DHT22;47127;47.516;8.596;2023-02-28T08:59:52;1.60;99.90
61253;DHT22;47127;47.516;8.596;2023-02-28T09:02:18;1.50;99.90
61253;DHT22;47127;47.516;8.596;2023-02-28T09:04:43;1.50;99.90
61253;DHT22;47127;47.516;8.596;2023-02-28T09:07:11;1.60;99.90
61253;DHT22;47127;47.516;8.596;2023-02-28T09:09:38;1.50;99.90
61253;DHT22;47127;47.516;8.596;2023-02-28T09:12:23;1.70;99.90
61253;DHT22;47127;47.516;8.596;2023-02-28T09:14:49;1.80;99.90
61253;DHT22;47127;47.516;8.596;2023-02-28T09:17:15;1.80;99.90
61253;DHT22;47127;47.516;8.596;2023-02-28T09:19:41;1.70;99.90
61253;DHT22;47127;47.516;8.596;2023-02-28T09:22:06;1.70;99.90
61253;DHT22;47127;47.516;8.596;2023-02-28T09:24:32;1.70;99.90
61253;DHT22;47127;47.516;8.596;2023-02-28T09:26:57;1.80;99.90
61253;DHT22;47127;47.516;8.596;2023-02-28T09:29:23;1.80;99.90
61253;DHT22;47127;47.516;8.596;2023-02-28T09:31:48;1.90;99.90
61253;DHT22;47127;47.516;8.596;2023-02-28T09:34:14;1.80;99.90
61253;DHT22;47127;47.516;8.596;2023-02-28T09:36:41;1.70;99.90
61253;DHT22;47127;47.516;8.596;2023-02-28T09:39:06;1.80;99.90
61253;DHT22;47127;47.516;8.596;2023-02-28T09:41:39;1.90;99.90
61253;DHT22;47127;47.516;8.596;2023-02-28T09:44:22;2.00;99.90
61253;DHT22;47127;47.516;8.596;2023-02-28T09:46:53;1.90;99.90
61253;DHT22;47127;47.516;8.596;2023-02-28T09:49:33;1.90;99.90
61253;DHT22;47127;47.516;8.596;2023-02-28T09:52:14;1.80;99.90
61253;DHT22;47127;47.516;8.596;2023-02-28T09:54:41;2.00;99.90
61253;DHT22;47127;47.516;8.596;2023-02-28T09:57:58;2.10;99.90
61253;DHT22;47127;47.516;8.596;2023-02-28T10:08:31;2.30;99.90
61253;DHT22;47127;47.516;8.596;2023-02-28T10:11:01;2.00;99.90
61253;DHT22;47127;47.516;8.596;2023-02-28T10:19:03;2.00;99.90
61253;DHT22;47127;47.516;8.596;2023-02-28T10:21:36;2.00;99.90
61253;DHT22;47127;47.516;8.596;2023-02-28T10:26:46;2.00;99.90
61253;DHT22;47127;47.516;8.596;2023-02-28T10:29:12;2.10;99.90
61253;DHT22;47127;47.516;8.596;2023-02-28T10:31:40;1.80;99.90
61253;DHT22;47127;47.516;8.596;2023-02-28T10:34:06;1.80;99.90
61253;DHT22;47127;47.516;8.596;2023-02-28T10:36:32;1.90;99.90
61253;DHT22;47127;47.516;8.596;2023-02-28T10:38:58;1.90;99.90
61253;DHT22;47127;47.516;8.596;2023-02-28T10:41:32;1.80;99.90
61253;DHT22;47127;47.516;8.596;2023-02-28T10:44:22;1.90;99.90
61253;DHT22;47127;47.516;8.596;2023-02-28T10:46:48;1.90;99.90
61253;DHT22;47127;47.516;8.596;2023-02-28T10:49:24;1.80;99.90
61253;DHT22;47127;47.516;8.596;2023-02-28T10:51:59;1.80;99.90
61253;DHT22;47127;47.516;8.596;2023-02-28T10:54:31;1.70;99.90
61253;DHT22;47127;47.516;8.596;2023-02-28T10:59:32;2.10;99.90
61253;DHT22;47127;47.516;8.596;2023-02-28T11:01:57;2.00;99.90
61253;DHT22;47127;47.516;8.596;2023-02-28T11:07:02;2.00;99.90
61253;DHT22;47127;47.516;8.596;2023-02-28T11:09:33;1.90;99.90
61253;DHT22;47127;47.516;8.596;2023-02-28T11:12:02;1.90;99.90
61253;DHT22;47127;47.516;8.596;2023-02-28T11:14:32;1.80;99.90
61253;DHT22;47127;47.516;8.596;2023-02-28T11:17:11;1.70;99.90
61253;DHT22;47127;47.516;8.596;2023-02-28T11:19:44;1.90;99.90
61253;DHT22;47127;47.516;8.596;2023-02-28T11:22:24;2.00;99.90
61253;DHT22;47127;47.516;8.596;2023-02-28T11:24:58;1.80;99.90
61253;DHT22;47127;47.516;8.596;2023-02-28T11:30:03;2.00;99.90
61253;DHT22;47127;47.516;8.596;2023-02-28T11:32:30;2.00;99.90
61253;DHT22;47127;47.516;8.596;2023-02-28T11:37:36;2.10;99.90
61253;DHT22;47127;47.516;8.596;2023-02-28T11:40:09;2.00;99.90
61253;DHT22;47127;47.516;8.596;2023-02-28T11:42:50;2.00;99.90
61253;DHT22;47127;47.516;8.596;2023-02-28T11:50:38;1.90;99.90
61253;DHT22;47127;47.516;8.596;2023-02-28T11:55:04;2.00;99.90
61253;DHT22;47127;47.516;8.596;2023-02-28T12:01:07;1.90;99.90
61253;DHT22;47127;47.516;8.596;2023-02-28T12:06:22;2.00;99.90
61253;DHT22;47127;47.516;8.596;2023-02-28T12:08:55;2.00;99.90
61253;DHT22;47127;47.516;8.596;2023-02-28T12:14:25;2.10;99.90
61253;DHT22;47127;47.516;8.596;2023-02-28T12:22:46;2.00;99.90
61253;DHT22;47127;47.516;8.596;2023-02-28T12:25:37;2.20;99.90
61253;DHT22;47127;47.516;8.596;2023-02-28T12:28:09;2.30;99.90
61253;DHT22;47127;47.516;8.596;2023-02-28T12:30:41;2.40;99.90
61253;DHT22;47127;47.516;8.596;2023-02-28T12:33:12;2.20;99.90
61253;DHT22;47127;47.516;8.596;2023-02-28T12:35:55;2.20;99.90
61253;DHT22;47127;47.516;8.596;2023-02-28T12:38:34;2.10;99.90
61253;DHT22;47127;47.516;8.596;2023-02-28T12:41:39;2.10;99.90
61253;DHT22;47127;47.516;8.596;2023-02-28T12:44:04;2.30;99.90
61253;DHT22;47127;47.516;8.596;2023-02-28T12:46:38;2.10;99.90
61253;DHT22;47127;47.516;8.596;2023-02-28T12:49:12;2.30;99.90
61253;DHT22;47127;47.516;8.596;2023-02-28T12:51:38;2.30;99.90
61253;DHT22;47127;47.516;8.596;2023-02-28T12:59:39;2.40;99.90
61253;DHT22;47127;47.516;8.596;2023-02-28T13:05:21;2.50;99.90
61253;DHT22;47127;47.516;8.596;2023-02-28T13:10:44;2.20;99.90
61253;DHT22;47127;47.516;8.596;2023-02-28T13:13:16;2.10;99.90
61253;DHT22;47127;47.516;8.596;2023-02-28T13:15:58;2.20;99.90
61253;DHT22;47127;47.516;8.596;2023-02-28T13:18:31;2.20;99.90
61253;DHT22;47127;47.516;8.596;2023-02-28T13:20:57;2.30;99.90
61253;DHT22;47127;47.516;8.596;2023-02-28T13:23:56;2.40;99.90
61253;DHT22;47127;47.516;8.596;2023-02-28T13:34:32;2.00;99.90
61253;DHT22;47127;47.516;8.596;2023-02-28T13:39:53;2.40;99.90
61253;DHT22;47127;47.516;8.596;2023-02-28T13:47:36;2.10;99.90
61253;DHT22;47127;47.516;8.596;2023-02-28T14:04:33;2.10;99.90
61253;DHT22;47127;47.516;8.596;2023-02-28T14:07:05;2.20;99.90
61253;DHT22;47127;47.516;8.596;2023-02-28T14:09:40;2.20;99.90
61253;DHT22;47127;47.516;8.596;2023-02-28T14:15:43;2.30;99.90
61253;DHT22;47127;47.516;8.596;2023-02-28T14:18:36;2.30;99.90
61253;DHT22;47127;47.516;8.596;2023-02-28T14:21:20;2.10;99.90
61253;DHT22;47127;47.516;8.596;2023-02-28T14:29:37;2.30;99.90
61253;DHT22;47127;47.516;8.596;2023-02-28T14:34:55;2.30;99.90
61253;DHT22;47127;47.516;8.596;2023-02-28T14:37:30;2.20;99.90
61253;DHT22;47127;47.516;8.596;2023-02-28T14:39:58;2.30;99.90
61253;DHT22;47127;47.516;8.596;2023-02-28T14:42:37;2.40;99.90
61253;DHT22;47127;47.516;8.596;2023-02-28T14:45:20;2.60;99.90
61253;DHT22;47127;47.516;8.596;2023-02-28T14:47:47;2.50;99.90
61253;DHT22;47127;47.516;8.596;2023-02-28T14:50:19;2.40;99.90
61253;DHT22;47127;47.516;8.596;2023-02-28T14:52:46;2.30;99.90
61253;DHT22;47127;47.516;8.596;2023-02-28T14:55:18;2.40;99.90
61253;DHT22;47127;47.516;8.596;2023-02-28T14:58:18;2.50;99.90
61253;DHT22;47127;47.516;8.596;2023-02-28T15:00:49;2.60;99.90
61253;DHT22;47127;47.516;8.596;2023-02-28T15:03:21;2.50;99.90
61253;DHT22;47127;47.516;8.596;2023-02-28T15:05:54;2.60;99.90
61253;DHT22;47127;47.516;8.596;2023-02-28T15:08:20;2.60;99.90
61253;DHT22;47127;47.516;8.596;2023-02-28T15:13:23;2.60;99.90
61253;DHT22;47127;47.516;8.596;2023-02-28T15:15:53;2.40;99.90
61253;DHT22;47127;47.516;8.596;2023-02-28T15:18:28;2.50;99.90
61253;DHT22;47127;47.516;8.596;2023-02-28T15:20:56;2.50;99.90
61253;DHT22;47127;47.516;8.596;2023-02-28T15:23:23;2.50;99.90
61253;DHT22;47127;47.516;8.596;2023-02-28T15:25:50;2.40;99.90
61253;DHT22;47127;47.516;8.596;2023-02-28T15:28:19;2.50;99.90
61253;DHT22;47127;47.516;8.596;2023-02-28T15:31:00;2.30;99.90
61253;DHT22;47127;47.516;8.596;2023-02-28T15:33:28;2.30;99.90
61253;DHT22;47127;47.516;8.596;2023-02-28T15:38:34;2.50;99.90
61253;DHT22;47127;47.516;8.596;2023-02-28T15:41:00;2.40;99.90
61253;DHT22;47127;47.516;8.596;2023-02-28T15:43:31;2.50;99.90
61253;DHT22;47127;47.516;8.596;2023-02-28T15:46:09;2.40;99.90
61253;DHT22;47127;47.516;8.596;2023-02-28T15:48:52;2.50;99.90
61253;DHT22;47127;47.516;8.596;2023-02-28T15:51:23;2.40;99.90
61253;DHT22;47127;47.516;8.596;2023-02-28T15:53:58;2.40;99.90
61253;DHT22;47127;47.516;8.596;2023-02-28T15:56:30;2.50;99.90
61253;DHT22;47127;47.516;8.596;2023-02-28T15:59:01;2.50;99.90
61253;DHT22;47127;47.516;8.596;2023-02-28T16:01:32;2.30;99.90
61253;DHT22;47127;47.516;8.596;2023-02-28T16:04:04;2.40;99.90
61253;DHT22;47127;47.516;8.596;2023-02-28T16:06:40;2.10;99.90
61253;DHT22;47127;47.516;8.596;2023-02-28T16:09:12;2.20;99.90
61253;DHT22;47127;47.516;8.596;2023-02-28T16:11:42;2.20;99.90
61253;DHT22;47127;47.516;8.596;2023-02-28T16:14:13;2.10;99.90
61253;DHT22;47127;47.516;8.596;2023-02-28T16:16:43;2.10;99.90
61253;DHT22;47127;47.516;8.596;2023-02-28T16:19:09;2.20;99.90
61253;DHT22;47127;47.516;8.596;2023-02-28T16:21:35;2.20;99.90
61253;DHT22;47127;47.516;8.596;2023-02-28T16:24:00;2.20;99.90
61253;DHT22;47127;47.516;8.596;2023-02-28T16:26:26;2.10;99.90
61253;DHT22;47127;47.516;8.596;2023-02-28T16:28:53;2.20;99.90
61253;DHT22;47127;47.516;8.596;2023-02-28T16:31:19;2.30;99.90
61253;DHT22;47127;47.516;8.596;2023-02-28T16:33:46;2.10;99.90
61253;DHT22;47127;47.516;8.596;2023-02-28T16:36:20;2.10;99.90
61253;DHT22;47127;47.516;8.596;2023-02-28T16:38:46;2.10;99.90
61253;DHT22;47127;47.516;8.596;2023-02-28T16:41:16;2.10;99.90
61253;DHT22;47127;47.516;8.596;2023-02-28T16:43:46;2.10;99.90
61253;DHT22;47127;47.516;8.596;2023-02-28T16:46:12;2.10;99.90
61253;DHT22;47127;47.516;8.596;2023-02-28T16:48:38;1.90;99.90
61253;DHT22;47127;47.516;8.596;2023-02-28T16:51:07;1.90;99.90
61253;DHT22;47127;47.516;8.596;2023-02-28T16:53:33;2.00;99.90
61253;DHT22;47127;47.516;8.596;2023-02-28T16:56:00;1.80;99.90
61253;DHT22;47127;47.516;8.596;2023-02-28T16:58:27;1.60;99.90
61253;DHT22;47127;47.516;8.596;2023-02-28T17:00:53;1.60;99.90
61253;DHT22;47127;47.516;8.596;2023-02-28T17:03:28;1.70;99.90
61253;DHT22;47127;47.516;8.596;2023-02-28T17:05:54;1.70;99.90
61253;DHT22;47127;47.516;8.596;2023-02-28T17:08:19;1.80;99.90
61253;DHT22;47127;47.516;8.596;2023-02-28T17:10:45;1.70;99.90
61253;DHT22;47127;47.516;8.596;2023-02-28T17:13:11;1.80;99.90
61253;DHT22;47127;47.516;8.596;2023-02-28T17:15:38;1.90;99.90
61253;DHT22;47127;47.516;8.596;2023-02-28T17:18:04;1.80;99.90
61253;DHT22;47127;47.516;8.596;2023-02-28T17:20:31;1.90;99.90
61253;DHT22;47127;47.516;8.596;2023-02-28T17:22:57;1.90;99.90
61253;DHT22;47127;47.516;8.596;2023-02-28T17:25:23;1.80;99.90
61253;DHT22;47127;47.516;8.596;2023-02-28T17:27:49;1.80;99.90
61253;DHT22;47127;47.516;8.596;2023-02-28T17:30:20;1.80;99.90
61253;DHT22;47127;47.516;8.596;2023-02-28T17:32:46;1.80;99.90
61253;DHT22;47127;47.516;8.596;2023-02-28T17:35:12;1.70;99.90
61253;DHT22;47127;47.516;8.596;2023-02-28T17:37:38;1.80;99.90
61253;DHT22;47127;47.516;8.596;2023-02-28T17:40:04;1.80;99.90
61253;DHT22;47127;47.516;8.596;2023-02-28T17:42:30;1.70;99.90
61253;DHT22;47127;47.516;8.596;2023-02-28T17:44:55;1.70;99.90
61253;DHT22;47127;47.516;8.596;2023-02-28T17:47:21;1.70;99.90
61253;DHT22;47127;47.516;8.596;2023-02-28T17:49:47;1.70;99.90
61253;DHT22;47127;47.516;8.596;2023-02-28T17:52:12;1.70;99.90
61253;DHT22;47127;47.516;8.596;2023-02-28T17:54:38;1.60;99.90
61253;DHT22;47127;47.516;8.596;2023-02-28T17:57:03;1.70;99.90
61253;DHT22;47127;47.516;8.596;2023-02-28T17:59:29;1.70;99.90
61253;DHT22;47127;47.516;8.596;2023-02-28T18:01:59;1.60;99.90
61253;DHT22;47127;47.516;8.596;2023-02-28T18:04:25;1.70;99.90
61253;DHT22;47127;47.516;8.596;2023-02-28T18:06:52;1.70;99.90
61253;DHT22;47127;47.516;8.596;2023-02-28T18:09:21;1.60;99.90
61253;DHT22;47127;47.516;8.596;2023-02-28T18:11:47;1.60;99.90
61253;DHT22;47127;47.516;8.596;2023-02-28T18:14:17;1.60;99.90
61253;DHT22;47127;47.516;8.596;2023-02-28T18:16:43;1.60;99.90
61253;DHT22;47127;47.516;8.596;2023-02-28T18:19:09;1.70;99.90
61253;DHT22;47127;47.516;8.596;2023-02-28T18:21:40;1.50;99.90
61253;DHT22;47127;47.516;8.596;2023-02-28T18:24:07;1.50;99.90